createdAt,value
2018-06-01T00:00:50.063Z,28.32
2018-06-01T00:03:16.192Z,28.32
2018-06-01T00:05:42.334Z,28.30
2018-06-01T00:08:08.491Z,28.29
2018-06-01T00:10:34.641Z,28.28
2018-06-01T00:13:00.819Z,28.28
2018-06-01T00:15:26.950Z,28.28
2018-06-01T00:17:53.154Z,28.29
2018-06-01T00:20:19.329Z,28.26
2018-06-01T00:22:45.813Z,28.24
2018-06-01T00:25:12.117Z,28.22
2018-06-01T00:27:38.226Z,28.22
2018-06-01T00:30:04.386Z,28.20
2018-06-01T00:32:30.527Z,28.19
2018-06-01T00:34:57.361Z,28.18
2018-06-01T00:37:23.506Z,28.17
2018-06-01T00:39:49.648Z,28.16
2018-06-01T00:42:15.806Z,28.15
2018-06-01T00:44:41.967Z,28.13
2018-06-01T00:47:08.257Z,28.12
2018-06-01T00:49:34.384Z,28.12
2018-06-01T00:52:00.520Z,28.12
2018-06-01T00:54:27.079Z,28.11
2018-06-01T00:56:53.352Z,28.12
2018-06-01T00:59:19.484Z,28.11
2018-06-01T01:01:45.602Z,28.07
2018-06-01T01:04:12.508Z,28.06
2018-06-01T01:06:38.643Z,28.06
2018-06-01T01:09:04.883Z,28.05
2018-06-01T01:11:31.154Z,28.03
2018-06-01T01:13:57.286Z,28.02
2018-06-01T01:16:23.420Z,28.02
2018-06-01T01:18:50.032Z,28.00
2018-06-01T01:21:16.196Z,28.00
2018-06-01T01:23:42.324Z,27.98
2018-06-01T01:26:08.972Z,27.99
2018-06-01T01:28:35.109Z,27.99
2018-06-01T01:31:01.244Z,27.99
2018-06-01T01:33:27.829Z,27.99
2018-06-01T01:35:54.291Z,27.99
2018-06-01T01:38:20.430Z,27.98
2018-06-01T01:40:58.343Z,27.96
2018-06-01T01:43:24.712Z,27.93
2018-06-01T01:45:50.911Z,27.92
2018-06-01T01:48:17.064Z,27.92
2018-06-01T01:50:43.217Z,27.92
2018-06-01T01:53:09.368Z,27.91
2018-06-01T01:55:35.492Z,27.90
2018-06-01T01:58:01.914Z,27.89
2018-06-01T02:00:28.055Z,27.89
2018-06-01T02:02:54.249Z,27.87
2018-06-01T02:05:20.377Z,27.85
2018-06-01T02:07:46.500Z,27.84
2018-06-01T02:10:12.669Z,27.84
2018-06-01T02:12:38.804Z,27.85
2018-06-01T02:15:04.959Z,27.84
2018-06-01T02:17:31.099Z,27.84
2018-06-01T02:19:57.240Z,27.82
2018-06-01T02:22:23.398Z,27.80
2018-06-01T02:24:49.574Z,27.80
2018-06-01T02:27:15.756Z,27.80
2018-06-01T02:29:41.948Z,27.81
2018-06-01T02:32:08.079Z,27.78
2018-06-01T02:34:34.221Z,27.77
2018-06-01T02:37:00.800Z,27.76
2018-06-01T02:39:26.971Z,27.77
2018-06-01T02:41:53.108Z,27.76
2018-06-01T02:44:19.264Z,27.76
2018-06-01T02:46:45.656Z,27.73
2018-06-01T02:49:11.939Z,27.73
2018-06-01T02:51:38.068Z,27.72
2018-06-01T02:54:04.207Z,27.69
2018-06-01T02:56:30.782Z,27.70
2018-06-01T02:58:56.941Z,27.68
2018-06-01T03:01:23.071Z,27.66
2018-06-01T03:03:49.323Z,27.65
2018-06-01T03:06:15.483Z,27.64
2018-06-01T03:08:41.644Z,27.63
2018-06-01T03:11:07.796Z,27.65
2018-06-01T03:13:33.962Z,27.65
2018-06-01T03:16:00.124Z,27.65
2018-06-01T03:18:26.265Z,27.65
2018-06-01T03:20:52.413Z,27.65
2018-06-01T03:23:18.612Z,27.62
2018-06-01T03:25:44.938Z,27.59
2018-06-01T03:28:11.436Z,27.55
2018-06-01T03:30:37.563Z,27.54
2018-06-01T03:33:03.697Z,27.53
2018-06-01T03:35:29.982Z,27.50
2018-06-01T03:37:56.148Z,27.48
2018-06-01T03:40:22.278Z,27.47
2018-06-01T03:42:48.496Z,27.47
2018-06-01T03:45:14.656Z,27.47
2018-06-01T03:47:43.047Z,27.45
2018-06-01T03:50:09.174Z,27.45
2018-06-01T03:52:35.373Z,27.43
2018-06-01T03:55:01.519Z,27.38
2018-06-01T03:57:27.642Z,27.41
2018-06-01T03:59:54.052Z,27.40
2018-06-01T04:02:20.181Z,27.38
2018-06-01T04:04:46.340Z,27.35
2018-06-01T04:07:12.714Z,27.33
2018-06-01T04:09:38.882Z,27.29
2018-06-01T04:12:05.048Z,27.30
2018-06-01T04:14:31.244Z,27.30
2018-06-01T04:16:57.467Z,27.28
2018-06-01T04:19:23.816Z,27.25
2018-06-01T04:21:50.136Z,27.24
2018-06-01T04:24:16.319Z,27.23
2018-06-01T04:26:42.530Z,27.20
2018-06-01T04:29:08.693Z,27.19
2018-06-01T04:31:34.844Z,27.17
2018-06-01T04:34:00.994Z,27.16
2018-06-01T04:36:27.158Z,27.17
2018-06-01T04:38:53.421Z,27.16
2018-06-01T04:41:19.563Z,27.15
2018-06-01T04:43:45.705Z,27.16
2018-06-01T04:46:12.312Z,27.16
2018-06-01T04:48:39.028Z,27.18
2018-06-01T04:51:05.179Z,27.18
2018-06-01T04:53:31.357Z,27.18
2018-06-01T04:55:57.490Z,27.18
2018-06-01T04:58:23.660Z,27.17
2018-06-01T05:00:49.820Z,27.16
2018-06-01T05:03:16.024Z,27.17
2018-06-01T05:05:42.708Z,27.16
2018-06-01T05:08:09.120Z,27.14
2018-06-01T05:10:35.253Z,27.12
2018-06-01T05:13:01.417Z,27.11
2018-06-01T05:15:27.682Z,27.09
2018-06-01T05:17:53.828Z,27.08
2018-06-01T05:20:20.044Z,27.07
2018-06-01T05:22:46.199Z,27.07
2018-06-01T05:25:12.368Z,27.06
2018-06-01T05:27:38.594Z,27.05
2018-06-01T05:30:04.719Z,27.05
2018-06-01T05:32:30.867Z,27.04
2018-06-01T05:34:57.143Z,27.04
2018-06-01T05:37:23.268Z,27.03
2018-06-01T05:39:49.423Z,27.02
2018-06-01T05:42:15.588Z,27.00
2018-06-01T05:44:41.743Z,26.98
2018-06-01T05:47:07.917Z,26.97
2018-06-01T05:49:34.103Z,26.99
2018-06-01T05:52:00.236Z,26.98
2018-06-01T05:54:26.482Z,26.98
2018-06-01T05:56:52.681Z,26.99
2018-06-01T05:59:18.875Z,26.99
2018-06-01T06:01:45.043Z,27.00
2018-06-01T06:04:11.192Z,27.03
2018-06-01T06:06:37.597Z,27.05
2018-06-01T06:09:03.872Z,27.10
2018-06-01T06:11:30.093Z,27.13
2018-06-01T06:13:56.379Z,27.14
2018-06-01T06:16:22.528Z,27.17
2018-06-01T06:18:48.667Z,27.19
2018-06-01T06:21:14.845Z,27.20
2018-06-01T06:23:40.973Z,27.20
2018-06-01T06:26:07.347Z,27.19
2018-06-01T06:28:33.521Z,27.20
2018-06-01T06:30:59.667Z,27.20
2018-06-01T06:33:25.972Z,27.20
2018-06-01T06:35:52.400Z,27.19
2018-06-01T06:38:18.553Z,27.18
2018-06-01T06:40:44.733Z,27.15
2018-06-01T06:43:10.977Z,27.13
2018-06-01T06:45:37.258Z,27.12
2018-06-01T06:48:03.409Z,27.12
2018-06-01T06:50:29.557Z,27.11
2018-06-01T06:52:55.834Z,27.09
2018-06-01T06:55:21.990Z,27.09
2018-06-01T06:57:48.169Z,27.09
2018-06-01T07:00:14.468Z,27.07
2018-06-01T07:02:40.621Z,27.09
2018-06-01T07:05:06.771Z,27.10
2018-06-01T07:07:33.133Z,27.12
2018-06-01T07:09:59.334Z,27.14
2018-06-01T07:12:25.459Z,27.19
2018-06-01T07:14:51.596Z,27.22
2018-06-01T07:17:18.142Z,27.25
2018-06-01T07:19:44.283Z,27.25
2018-06-01T07:22:10.443Z,27.25
2018-06-01T07:24:36.705Z,27.31
2018-06-01T07:27:02.996Z,27.33
2018-06-01T07:29:29.194Z,27.33
2018-06-01T07:31:55.367Z,27.34
2018-06-01T07:34:21.521Z,27.39
2018-06-01T07:36:47.683Z,27.43
2018-06-01T07:39:13.827Z,27.46
2018-06-01T07:41:40.021Z,27.49
2018-06-01T07:44:06.168Z,27.51
2018-06-01T07:46:32.345Z,27.53
2018-06-01T07:48:58.521Z,27.57
2018-06-01T07:51:24.648Z,27.59
2018-06-01T07:53:50.820Z,27.61
2018-06-01T07:56:16.976Z,27.62
2018-06-01T07:58:43.124Z,27.63
2018-06-01T08:01:09.305Z,27.64
2018-06-01T08:03:35.532Z,27.66
2018-06-01T08:06:01.658Z,27.69
2018-06-01T08:08:28.224Z,27.71
2018-06-01T08:10:54.384Z,27.72
2018-06-01T08:13:20.530Z,27.75
2018-06-01T08:15:46.818Z,27.77
2018-06-01T08:18:13.867Z,27.79
2018-06-01T08:20:40.018Z,27.80
2018-06-01T08:23:06.202Z,27.82
2018-06-01T08:25:32.837Z,27.83
2018-06-01T08:27:59.021Z,27.84
2018-06-01T08:30:25.168Z,27.85
2018-06-01T08:32:51.379Z,27.87
2018-06-01T08:35:17.528Z,27.89
2018-06-01T08:37:43.919Z,27.91
2018-06-01T08:40:10.085Z,27.93
2018-06-01T08:42:36.240Z,27.96
2018-06-01T08:45:02.529Z,27.98
2018-06-01T08:47:28.668Z,27.98
2018-06-01T08:49:55.072Z,28.00
2018-06-01T08:52:21.242Z,28.00
2018-06-01T08:54:47.838Z,28.02
2018-06-01T08:57:14.036Z,28.04
2018-06-01T08:59:40.177Z,28.05
2018-06-01T09:02:06.350Z,28.05
2018-06-01T09:04:32.536Z,28.06
2018-06-01T09:06:58.700Z,28.10
2018-06-01T09:09:24.823Z,28.12
2018-06-01T09:11:50.979Z,28.14
2018-06-01T09:14:17.608Z,28.15
2018-06-01T09:16:44.101Z,28.16
2018-06-01T09:19:10.241Z,28.17
2018-06-01T09:21:36.428Z,28.19
2018-06-01T09:24:02.590Z,28.21
2018-06-01T09:26:28.775Z,28.25
2018-06-01T09:28:55.317Z,28.26
2018-06-01T09:31:21.520Z,28.27
2018-06-01T09:33:47.658Z,28.27
2018-06-01T09:36:14.095Z,28.28
2018-06-01T09:38:40.672Z,28.30
2018-06-01T09:41:06.804Z,28.29
2018-06-01T09:43:33.000Z,28.27
2018-06-01T09:45:59.167Z,28.29
2018-06-01T09:48:25.297Z,28.29
2018-06-01T09:50:51.471Z,28.29
2018-06-01T09:53:18.072Z,28.29
2018-06-01T09:55:44.195Z,28.28
2018-06-01T09:58:10.336Z,28.29
2018-06-01T10:00:42.548Z,28.28
2018-06-01T10:03:08.692Z,28.28
2018-06-01T10:05:34.819Z,28.28
2018-06-01T10:08:00.991Z,28.31
2018-06-01T10:10:33.196Z,28.37
2018-06-01T10:12:59.372Z,28.40
2018-06-01T10:15:25.490Z,28.42
2018-06-01T10:17:51.693Z,28.43
2018-06-01T10:20:17.790Z,28.45
2018-06-01T10:22:44.048Z,28.48
2018-06-01T10:25:10.171Z,28.51
2018-06-01T10:27:36.304Z,28.54
2018-06-01T10:30:02.551Z,28.57
2018-06-01T10:32:29.285Z,28.59
2018-06-01T10:34:55.556Z,28.61
2018-06-01T10:37:21.687Z,28.62
2018-06-01T10:39:47.847Z,28.66
2018-06-01T10:42:13.984Z,28.68
2018-06-01T10:44:40.148Z,28.70
2018-06-01T10:47:06.269Z,28.72
2018-06-01T10:49:32.555Z,28.76
2018-06-01T10:51:58.705Z,28.80
2018-06-01T10:54:24.886Z,28.81
2018-06-01T10:56:51.035Z,28.85
2018-06-01T10:59:17.202Z,28.88
2018-06-01T11:01:43.589Z,28.91
2018-06-01T11:04:09.867Z,28.93
2018-06-01T11:06:36.006Z,28.96
2018-06-01T11:09:02.174Z,28.99
2018-06-01T11:11:28.736Z,29.02
2018-06-01T11:13:54.885Z,29.05
2018-06-01T11:16:21.004Z,29.08
2018-06-01T11:18:47.293Z,29.15
2018-06-01T11:21:15.165Z,29.18
2018-06-01T11:23:41.305Z,29.21
2018-06-01T11:26:07.487Z,29.21
2018-06-01T11:28:33.675Z,29.23
2018-06-01T11:30:59.829Z,29.27
2018-06-01T11:33:25.991Z,29.29
2018-06-01T11:35:52.263Z,29.31
2018-06-01T11:38:18.399Z,29.34
2018-06-01T11:40:44.568Z,29.37
2018-06-01T11:43:10.733Z,29.40
2018-06-01T11:45:36.856Z,29.43
2018-06-01T11:48:03.012Z,29.46
2018-06-01T11:50:29.137Z,29.48
2018-06-01T11:52:55.314Z,29.52
2018-06-01T11:55:21.444Z,29.56
2018-06-01T11:57:47.577Z,29.58
2018-06-01T12:00:13.824Z,29.62
2018-06-01T12:02:40.096Z,29.65
2018-06-01T12:05:06.248Z,29.68
2018-06-01T12:07:32.612Z,29.71
2018-06-01T12:09:58.771Z,29.74
2018-06-01T12:12:24.906Z,29.77
2018-06-01T12:14:51.171Z,29.79
2018-06-01T12:17:17.309Z,29.81
2018-06-01T12:19:43.449Z,29.84
2018-06-01T12:22:09.720Z,29.87
2018-06-01T12:24:36.016Z,29.91
2018-06-01T12:27:02.171Z,29.94
2018-06-01T12:29:28.397Z,29.99
2018-06-01T12:31:55.127Z,30.04
2018-06-01T12:34:21.247Z,30.09
2018-06-01T12:36:47.373Z,30.08
2018-06-01T12:39:13.552Z,30.12
2018-06-01T12:41:39.696Z,30.11
2018-06-01T12:44:05.897Z,30.07
2018-06-01T12:46:32.041Z,29.95
2018-06-01T12:48:58.192Z,29.90
2018-06-01T12:51:24.479Z,29.89
2018-06-01T12:53:50.623Z,29.92
2018-06-01T12:56:16.774Z,29.98
2018-06-01T12:58:42.953Z,30.03
2018-06-01T13:01:09.094Z,30.10
2018-06-01T13:03:35.263Z,30.14
2018-06-01T13:06:01.418Z,30.19
2018-06-01T13:08:27.623Z,30.24
2018-06-01T13:10:53.751Z,30.27
2018-06-01T13:13:20.128Z,30.31
2018-06-01T13:15:46.669Z,30.32
2018-06-01T13:18:12.900Z,30.36
2018-06-01T13:20:39.087Z,30.38
2018-06-01T13:23:05.229Z,30.41
2018-06-01T13:25:31.371Z,30.43
2018-06-01T13:27:57.555Z,30.46
2018-06-01T13:30:23.684Z,30.49
2018-06-01T13:32:49.846Z,30.53
2018-06-01T13:35:16.041Z,30.56
2018-06-01T13:37:42.207Z,30.59
2018-06-01T13:40:08.352Z,30.62
2018-06-01T13:42:34.616Z,30.65
2018-06-01T13:45:00.735Z,30.66
2018-06-01T13:47:26.890Z,30.68
2018-06-01T13:49:53.182Z,30.71
2018-06-01T13:52:19.318Z,30.74
2018-06-01T13:54:45.452Z,30.79
2018-06-01T13:57:11.739Z,30.83
2018-06-01T13:59:37.869Z,30.87
2018-06-01T14:02:04.253Z,30.90
2018-06-01T14:04:30.426Z,30.94
2018-06-01T14:06:56.572Z,30.98
2018-06-01T14:09:22.894Z,31.01
2018-06-01T14:11:49.021Z,31.04
2018-06-01T14:14:15.153Z,31.07
2018-06-01T14:16:41.315Z,31.11
2018-06-01T14:19:07.478Z,31.16
2018-06-01T14:21:33.597Z,31.22
2018-06-01T14:24:00.015Z,31.28
2018-06-01T14:26:26.190Z,31.35
2018-06-01T14:28:52.317Z,31.44
2018-06-01T14:31:18.585Z,31.55
2018-06-01T14:33:44.753Z,31.70
2018-06-01T14:36:10.916Z,31.89
2018-06-01T14:38:37.090Z,32.08
2018-06-01T14:41:03.237Z,32.27
2018-06-01T14:43:29.518Z,32.46
2018-06-01T14:45:55.665Z,32.65
2018-06-01T14:48:21.808Z,32.75
2018-06-01T14:50:47.980Z,32.73
2018-06-01T14:53:14.138Z,32.64
2018-06-01T14:55:40.419Z,32.54
2018-06-01T14:58:06.547Z,32.39
2018-06-01T15:00:32.681Z,32.17
2018-06-01T15:02:58.958Z,31.99
2018-06-01T15:05:25.097Z,31.88
2018-06-01T15:07:51.235Z,31.80
2018-06-01T15:10:17.783Z,31.73
2018-06-01T15:12:43.911Z,31.69
2018-06-01T15:15:10.047Z,31.65
2018-06-01T15:17:36.324Z,31.61
2018-06-01T15:20:02.489Z,31.56
2018-06-01T15:22:28.633Z,31.54
2018-06-01T15:24:54.812Z,31.51
2018-06-01T15:27:20.935Z,31.49
2018-06-01T15:29:47.076Z,31.46
2018-06-01T15:32:13.233Z,31.45
2018-06-01T15:34:39.517Z,31.43
2018-06-01T15:37:05.685Z,31.41
2018-06-01T15:39:31.812Z,31.39
2018-06-01T15:41:57.924Z,31.37
2018-06-01T15:44:24.087Z,31.35
2018-06-01T15:46:51.888Z,31.33
2018-06-01T15:49:18.132Z,31.31
2018-06-01T15:51:44.450Z,31.28
2018-06-01T15:54:10.947Z,31.26
2018-06-01T15:56:37.288Z,31.21
2018-06-01T15:59:04.239Z,31.15
2018-06-01T16:01:30.688Z,31.08
2018-06-01T16:03:57.974Z,31.04
2018-06-01T16:06:25.276Z,30.99
2018-06-01T16:08:51.643Z,30.95
2018-06-01T16:11:17.927Z,30.92
2018-06-01T16:13:44.094Z,30.90
2018-06-01T16:16:10.445Z,30.88
2018-06-01T16:18:36.879Z,30.88
2018-06-01T16:21:03.364Z,30.86
2018-06-01T16:23:29.508Z,30.84
2018-06-01T16:25:56.294Z,30.83
2018-06-01T16:28:22.439Z,30.82
2018-06-01T16:30:48.919Z,30.82
2018-06-01T16:33:15.219Z,30.83
2018-06-01T16:35:41.528Z,30.84
2018-06-01T16:38:07.675Z,30.85
2018-06-01T16:40:33.930Z,30.87
2018-06-01T16:43:00.273Z,30.88
2018-06-01T16:45:26.695Z,30.89
2018-06-01T16:47:52.921Z,30.89
2018-06-01T16:50:19.375Z,30.89
2018-06-01T16:52:45.649Z,30.89
2018-06-01T16:55:12.087Z,30.88
2018-06-01T16:57:38.362Z,30.87
2018-06-01T17:00:04.901Z,30.87
2018-06-01T17:02:31.214Z,30.86
2018-06-01T17:04:58.057Z,30.85
2018-06-01T17:07:24.253Z,30.84
2018-06-01T17:09:50.561Z,30.83
2018-06-01T17:12:16.774Z,30.81
2018-06-01T17:14:43.261Z,30.81
2018-06-01T17:17:09.410Z,30.79
2018-06-01T17:19:35.688Z,30.78
2018-06-01T17:22:01.953Z,30.76
2018-06-01T17:24:28.310Z,30.74
2018-06-01T17:26:54.520Z,30.73
2018-06-01T17:29:21.035Z,30.71
2018-06-01T17:31:50.406Z,30.69
2018-06-01T17:34:16.545Z,30.68
2018-06-01T17:36:42.743Z,30.66
2018-06-01T17:39:09.200Z,30.64
2018-06-01T17:41:35.387Z,30.61
2018-06-01T17:44:01.832Z,30.57
2018-06-01T17:46:27.974Z,30.55
2018-06-01T17:48:54.851Z,30.54
2018-06-01T17:51:20.998Z,30.52
2018-06-01T17:53:47.142Z,30.52
2018-06-01T17:56:13.314Z,30.51
2018-06-01T17:58:39.487Z,30.49
2018-06-01T18:01:05.640Z,30.47
2018-06-01T18:03:31.792Z,30.45
2018-06-01T18:05:57.941Z,30.43
2018-06-01T18:08:24.112Z,30.41
2018-06-01T18:10:50.247Z,30.39
2018-06-01T18:13:16.437Z,30.37
2018-06-01T18:15:42.586Z,30.35
2018-06-01T18:18:08.753Z,30.33
2018-06-01T18:20:34.890Z,30.31
2018-06-01T18:23:01.051Z,30.29
2018-06-01T18:25:27.355Z,30.26
2018-06-01T18:27:53.534Z,30.24
2018-06-01T18:30:19.659Z,30.23
2018-06-01T18:32:45.795Z,30.20
2018-06-01T18:35:12.201Z,30.18
2018-06-01T18:37:38.665Z,30.17
2018-06-01T18:40:04.964Z,30.14
2018-06-01T18:42:31.105Z,30.12
2018-06-01T18:44:57.258Z,30.09
2018-06-01T18:47:23.764Z,30.07
2018-06-01T18:49:49.893Z,30.04
2018-06-01T18:52:16.027Z,30.01
2018-06-01T18:54:42.308Z,29.97
2018-06-01T18:57:08.455Z,29.95
2018-06-01T18:59:34.771Z,29.91
2018-06-01T19:02:01.338Z,29.87
2018-06-01T19:04:27.458Z,29.82
2018-06-01T19:06:53.591Z,29.78
2018-06-01T19:09:20.038Z,29.75
2018-06-01T19:11:46.246Z,29.71
2018-06-01T19:14:12.420Z,29.68
2018-06-01T19:16:38.582Z,29.64
2018-06-01T19:19:04.851Z,29.61
2018-06-01T19:21:30.984Z,29.58
2018-06-01T19:23:57.148Z,29.55
2018-06-01T19:26:23.303Z,29.52
2018-06-01T19:28:49.477Z,29.48
2018-06-01T19:31:16.093Z,29.46
2018-06-01T19:33:42.222Z,29.43
2018-06-01T19:36:08.654Z,29.41
2018-06-01T19:38:35.192Z,29.38
2018-06-01T19:41:01.315Z,29.36
2018-06-01T19:43:27.457Z,29.34
2018-06-01T19:45:53.592Z,29.31
2018-06-01T19:48:19.730Z,29.28
2018-06-01T19:50:45.997Z,29.26
2018-06-01T19:53:12.131Z,29.23
2018-06-01T19:55:38.284Z,29.21
2018-06-01T19:58:04.469Z,29.19
2018-06-01T20:00:30.613Z,29.17
2018-06-01T20:02:57.019Z,29.15
2018-06-01T20:05:23.531Z,29.13
2018-06-01T20:07:49.666Z,29.11
2018-06-01T20:10:15.782Z,29.09
2018-06-01T20:12:42.060Z,29.06
2018-06-01T20:15:08.208Z,29.05
2018-06-01T20:17:34.345Z,29.03
2018-06-01T20:20:00.591Z,29.00
2018-06-01T20:22:26.752Z,28.99
2018-06-01T20:24:52.910Z,28.97
2018-06-01T20:27:19.079Z,28.95
2018-06-01T20:29:45.225Z,28.93
2018-06-01T20:32:11.364Z,28.91
2018-06-01T20:34:37.531Z,28.89
2018-06-01T20:37:03.656Z,28.88
2018-06-01T20:39:29.847Z,28.86
2018-06-01T20:41:56.075Z,28.84
2018-06-01T20:44:22.214Z,28.82
2018-06-01T20:46:48.348Z,28.80
2018-06-01T20:49:14.514Z,28.79
2018-06-01T20:51:40.641Z,28.78
2018-06-01T20:54:06.819Z,28.76
2018-06-01T20:56:32.951Z,28.75
2018-06-01T20:58:59.124Z,28.73
2018-06-01T21:01:25.280Z,28.71
2018-06-01T21:03:51.441Z,28.71
2018-06-01T21:06:17.568Z,28.68
2018-06-01T21:08:43.744Z,28.68
2018-06-01T21:11:09.893Z,28.66
2018-06-01T21:13:36.150Z,28.65
2018-06-01T21:16:02.377Z,28.64
2018-06-01T21:18:28.504Z,28.62
2018-06-01T21:20:54.657Z,28.61
2018-06-01T21:23:20.943Z,28.59
2018-06-01T21:25:47.092Z,28.59
2018-06-01T21:28:13.225Z,28.58
2018-06-01T21:30:39.507Z,28.57
2018-06-01T21:33:05.676Z,28.55
2018-06-01T21:35:31.800Z,28.54
2018-06-01T21:37:58.058Z,28.53
2018-06-01T21:40:24.358Z,28.52
2018-06-01T21:42:50.509Z,28.51
2018-06-01T21:45:16.973Z,28.50
2018-06-01T21:47:43.102Z,28.49
2018-06-01T21:50:09.252Z,28.48
2018-06-01T21:52:35.423Z,28.47
2018-06-01T21:55:01.557Z,28.46
2018-06-01T21:57:27.733Z,28.46
2018-06-01T21:59:53.861Z,28.44
2018-06-01T22:02:20.071Z,28.44
2018-06-01T22:04:46.205Z,28.43
2018-06-01T22:07:12.340Z,28.42
2018-06-01T22:09:38.505Z,28.41
2018-06-01T22:12:04.660Z,28.40
2018-06-01T22:14:30.833Z,28.39
2018-06-01T22:16:56.959Z,28.38
2018-06-01T22:19:23.135Z,28.37
2018-06-01T22:21:49.281Z,28.36
2018-06-01T22:24:15.510Z,28.35
2018-06-01T22:26:41.643Z,28.35
2018-06-01T22:29:07.779Z,28.34
2018-06-01T22:31:34.364Z,28.33
2018-06-01T22:34:00.498Z,28.32
2018-06-01T22:36:26.659Z,28.31
2018-06-01T22:38:53.250Z,28.30
2018-06-01T22:41:19.410Z,28.29
2018-06-01T22:43:45.560Z,28.28
2018-06-01T22:46:11.715Z,28.28
2018-06-01T22:48:44.690Z,28.26
2018-06-01T22:51:11.254Z,28.26
2018-06-01T22:53:37.430Z,28.24
2018-06-01T22:56:03.557Z,28.23
2018-06-01T22:58:29.754Z,28.22
2018-06-01T23:00:56.139Z,28.20
2018-06-01T23:03:22.260Z,28.20
2018-06-01T23:05:48.432Z,28.18
2018-06-01T23:08:14.949Z,28.18
2018-06-01T23:10:41.089Z,28.17
2018-06-01T23:13:07.234Z,28.16
2018-06-01T23:15:33.395Z,28.15
2018-06-01T23:17:59.523Z,28.14
2018-06-01T23:20:25.675Z,28.12
2018-06-01T23:22:51.825Z,28.13
2018-06-01T23:25:18.379Z,28.12
2018-06-01T23:27:44.520Z,28.11
2018-06-01T23:30:10.663Z,28.10
2018-06-01T23:32:37.320Z,28.10
2018-06-01T23:35:03.459Z,28.08
2018-06-01T23:37:29.592Z,28.07
2018-06-01T23:39:55.764Z,28.08
2018-06-01T23:42:21.938Z,28.07
2018-06-01T23:44:48.216Z,28.06
2018-06-01T23:47:14.347Z,28.06
2018-06-01T23:49:40.496Z,28.05
2018-06-01T23:52:06.762Z,28.04
2018-06-01T23:54:32.900Z,28.04
2018-06-01T23:56:59.039Z,28.03
2018-06-01T23:59:25.209Z,28.02
